sensor_id;sensor_type;location;lat;lon;timestamp;temperature;humidity
12578;DHT22;6354;51.026;8.968;2023-02-08T00:00:27;-2.20;99.90
12578;DHT22;6354;51.026;8.968;2023-02-08T00:02:55;-2.20;99.90
12578;DHT22;6354;51.026;8.968;2023-02-08T00:05:23;-2.20;99.90
12578;DHT22;6354;51.026;8.968;2023-02-08T00:07:51;-2.20;99.90
12578;DHT22;6354;51.026;8.968;2023-02-08T00:10:19;-2.20;99.90
12578;DHT22;6354;51.026;8.968;2023-02-08T00:12:48;-2.30;99.90
12578;DHT22;6354;51.026;8.968;2023-02-08T00:15:18;-2.30;99.90
12578;DHT22;6354;51.026;8.968;2023-02-08T00:17:46;-2.30;99.90
12578;DHT22;6354;51.026;8.968;2023-02-08T00:20:14;-2.30;99.90
12578;DHT22;6354;51.026;8.968;2023-02-08T00:22:42;-2.30;99.90
12578;DHT22;6354;51.026;8.968;2023-02-08T00:25:10;-2.30;99.90
12578;DHT22;6354;51.026;8.968;2023-02-08T00:27:38;-2.30;99.90
12578;DHT22;6354;51.026;8.968;2023-02-08T00:30:08;-2.30;99.90
12578;DHT22;6354;51.026;8.968;2023-02-08T00:32:37;-2.30;99.90
12578;DHT22;6354;51.026;8.968;2023-02-08T00:35:05;-2.30;99.90
12578;DHT22;6354;51.026;8.968;2023-02-08T00:37:33;-2.40;99.90
12578;DHT22;6354;51.026;8.968;2023-02-08T00:40:02;-2.40;99.90
12578;DHT22;6354;51.026;8.968;2023-02-08T00:42:31;-2.30;99.90
12578;DHT22;6354;51.026;8.968;2023-02-08T00:44:59;-2.40;99.90
12578;DHT22;6354;51.026;8.968;2023-02-08T00:47:29;-2.40;99.90
12578;DHT22;6354;51.026;8.968;2023-02-08T00:49:57;-2.40;99.90
12578;DHT22;6354;51.026;8.968;2023-02-08T00:52:26;-2.40;99.90
12578;DHT22;6354;51.026;8.968;2023-02-08T00:54:55;-2.50;99.90
12578;DHT22;6354;51.026;8.968;2023-02-08T00:57:23;-2.50;99.90
12578;DHT22;6354;51.026;8.968;2023-02-08T00:59:51;-2.50;99.90
12578;DHT22;6354;51.026;8.968;2023-02-08T01:02:19;-2.50;99.90
12578;DHT22;6354;51.026;8.968;2023-02-08T01:04:48;-2.50;99.90
12578;DHT22;6354;51.026;8.968;2023-02-08T01:07:16;-2.50;99.90
12578;DHT22;6354;51.026;8.968;2023-02-08T01:09:44;-2.50;99.90
12578;DHT22;6354;51.026;8.968;2023-02-08T01:12:12;-2.60;99.90
12578;DHT22;6354;51.026;8.968;2023-02-08T01:14:40;-2.60;99.90
12578;DHT22;6354;51.026;8.968;2023-02-08T01:17:09;-2.60;99.90
12578;DHT22;6354;51.026;8.968;2023-02-08T01:19:37;-2.60;99.90
12578;DHT22;6354;51.026;8.968;2023-02-08T01:22:09;-2.60;99.90
12578;DHT22;6354;51.026;8.968;2023-02-08T01:24:37;-2.60;99.90
12578;DHT22;6354;51.026;8.968;2023-02-08T01:27:05;-2.60;99.90
12578;DHT22;6354;51.026;8.968;2023-02-08T01:29:33;-2.60;99.90
12578;DHT22;6354;51.026;8.968;2023-02-08T01:32:01;-2.60;99.90
12578;DHT22;6354;51.026;8.968;2023-02-08T01:34:29;-2.60;99.90
12578;DHT22;6354;51.026;8.968;2023-02-08T01:36:57;-2.60;99.90
12578;DHT22;6354;51.026;8.968;2023-02-08T01:39:27;-2.60;99.90
12578;DHT22;6354;51.026;8.968;2023-02-08T01:41:55;-2.70;99.90
12578;DHT22;6354;51.026;8.968;2023-02-08T01:47:28;-2.60;99.90
12578;DHT22;6354;51.026;8.968;2023-02-08T01:49:56;-2.70;99.90
12578;DHT22;6354;51.026;8.968;2023-02-08T01:52:25;-2.70;99.90
12578;DHT22;6354;51.026;8.968;2023-02-08T01:54:59;-2.70;99.90
12578;DHT22;6354;51.026;8.968;2023-02-08T01:57:29;-2.70;99.90
12578;DHT22;6354;51.026;8.968;2023-02-08T02:00:01;-2.70;99.90
12578;DHT22;6354;51.026;8.968;2023-02-08T02:02:30;-2.70;99.90
12578;DHT22;6354;51.026;8.968;2023-02-08T02:04:58;-2.70;99.90
12578;DHT22;6354;51.026;8.968;2023-02-08T02:07:29;-2.70;99.90
12578;DHT22;6354;51.026;8.968;2023-02-08T02:10:03;-2.70;99.90
12578;DHT22;6354;51.026;8.968;2023-02-08T02:12:35;-2.70;99.90
12578;DHT22;6354;51.026;8.968;2023-02-08T02:15:05;-2.70;99.90
12578;DHT22;6354;51.026;8.968;2023-02-08T02:17:33;-2.80;99.90
12578;DHT22;6354;51.026;8.968;2023-02-08T02:20:05;-2.80;99.90
12578;DHT22;6354;51.026;8.968;2023-02-08T02:23:15;-2.80;99.90
12578;DHT22;6354;51.026;8.968;2023-02-08T02:26:15;-2.80;99.90
12578;DHT22;6354;51.026;8.968;2023-02-08T02:32:26;-2.80;99.90
12578;DHT22;6354;51.026;8.968;2023-02-08T02:35:02;-2.80;99.90
12578;DHT22;6354;51.026;8.968;2023-02-08T02:37:43;-2.90;99.90
12578;DHT22;6354;51.026;8.968;2023-02-08T02:40:20;-2.90;99.90
12578;DHT22;6354;51.026;8.968;2023-02-08T02:42:57;-2.90;99.90
12578;DHT22;6354;51.026;8.968;2023-02-08T02:45:49;-2.90;99.90
12578;DHT22;6354;51.026;8.968;2023-02-08T02:48:25;-2.90;99.90
12578;DHT22;6354;51.026;8.968;2023-02-08T02:50:59;-2.90;99.90
12578;DHT22;6354;51.026;8.968;2023-02-08T02:53:34;-2.90;99.90
12578;DHT22;6354;51.026;8.968;2023-02-08T02:56:08;-3.00;99.90
12578;DHT22;6354;51.026;8.968;2023-02-08T02:58:39;-3.00;99.90
12578;DHT22;6354;51.026;8.968;2023-02-08T03:01:07;-3.00;99.90
12578;DHT22;6354;51.026;8.968;2023-02-08T03:03:37;-3.00;99.90
12578;DHT22;6354;51.026;8.968;2023-02-08T03:06:09;-3.00;99.90
12578;DHT22;6354;51.026;8.968;2023-02-08T03:09:07;-3.00;99.90
12578;DHT22;6354;51.026;8.968;2023-02-08T03:11:43;-3.00;99.90
12578;DHT22;6354;51.026;8.968;2023-02-08T03:14:23;-3.00;99.90
12578;DHT22;6354;51.026;8.968;2023-02-08T03:17:09;-3.10;99.90
12578;DHT22;6354;51.026;8.968;2023-02-08T03:19:49;-3.10;99.90
12578;DHT22;6354;51.026;8.968;2023-02-08T03:22:24;-3.10;99.90
12578;DHT22;6354;51.026;8.968;2023-02-08T03:24:59;-3.10;99.90
12578;DHT22;6354;51.026;8.968;2023-02-08T03:27:31;-3.10;99.90
12578;DHT22;6354;51.026;8.968;2023-02-08T03:30:04;-3.10;99.90
12578;DHT22;6354;51.026;8.968;2023-02-08T03:32:37;-3.10;99.90
12578;DHT22;6354;51.026;8.968;2023-02-08T03:35:13;-3.10;99.90
12578;DHT22;6354;51.026;8.968;2023-02-08T03:37:45;-3.10;99.90
12578;DHT22;6354;51.026;8.968;2023-02-08T03:40:21;-3.20;99.90
12578;DHT22;6354;51.026;8.968;2023-02-08T03:42:53;-3.10;99.90
12578;DHT22;6354;51.026;8.968;2023-02-08T03:45:25;-3.10;99.90
12578;DHT22;6354;51.026;8.968;2023-02-08T03:47:57;-3.20;99.90
12578;DHT22;6354;51.026;8.968;2023-02-08T03:50:32;-3.20;99.90
12578;DHT22;6354;51.026;8.968;2023-02-08T03:53:01;-3.20;99.90
12578;DHT22;6354;51.026;8.968;2023-02-08T03:55:33;-3.20;99.90
12578;DHT22;6354;51.026;8.968;2023-02-08T03:58:07;-3.20;99.90
12578;DHT22;6354;51.026;8.968;2023-02-08T04:00:40;-3.30;99.90
12578;DHT22;6354;51.026;8.968;2023-02-08T04:03:12;-3.20;99.90
12578;DHT22;6354;51.026;8.968;2023-02-08T04:05:44;-3.20;99.90
12578;DHT22;6354;51.026;8.968;2023-02-08T04:08:12;-3.30;99.90
12578;DHT22;6354;51.026;8.968;2023-02-08T04:10:40;-3.30;99.90
12578;DHT22;6354;51.026;8.968;2023-02-08T04:13:08;-3.30;99.90
12578;DHT22;6354;51.026;8.968;2023-02-08T04:15:37;-3.30;99.90
12578;DHT22;6354;51.026;8.968;2023-02-08T04:18:05;-3.30;99.90
12578;DHT22;6354;51.026;8.968;2023-02-08T04:20:33;-3.30;99.90
12578;DHT22;6354;51.026;8.968;2023-02-08T04:23:02;-3.30;99.90
12578;DHT22;6354;51.026;8.968;2023-02-08T04:25:30;-3.30;99.90
12578;DHT22;6354;51.026;8.968;2023-02-08T04:27:58;-3.40;99.90
12578;DHT22;6354;51.026;8.968;2023-02-08T04:30:26;-3.40;99.90
12578;DHT22;6354;51.026;8.968;2023-02-08T04:32:54;-3.30;99.90
12578;DHT22;6354;51.026;8.968;2023-02-08T04:35:23;-3.30;99.90
12578;DHT22;6354;51.026;8.968;2023-02-08T04:37:52;-3.40;99.90
12578;DHT22;6354;51.026;8.968;2023-02-08T04:40:21;-3.40;99.90
12578;DHT22;6354;51.026;8.968;2023-02-08T04:42:49;-3.40;99.90
12578;DHT22;6354;51.026;8.968;2023-02-08T04:45:17;-3.40;99.90
12578;DHT22;6354;51.026;8.968;2023-02-08T04:47:45;-3.40;99.90
12578;DHT22;6354;51.026;8.968;2023-02-08T04:50:13;-3.40;99.90
12578;DHT22;6354;51.026;8.968;2023-02-08T04:52:41;-3.40;99.90
12578;DHT22;6354;51.026;8.968;2023-02-08T04:55:09;-3.50;99.90
12578;DHT22;6354;51.026;8.968;2023-02-08T04:57:39;-3.50;99.90
12578;DHT22;6354;51.026;8.968;2023-02-08T05:00:07;-3.50;99.90
12578;DHT22;6354;51.026;8.968;2023-02-08T05:02:36;-3.50;99.90
12578;DHT22;6354;51.026;8.968;2023-02-08T05:05:04;-3.50;99.90
12578;DHT22;6354;51.026;8.968;2023-02-08T05:07:32;-3.60;99.90
12578;DHT22;6354;51.026;8.968;2023-02-08T05:10:00;-3.60;99.90
12578;DHT22;6354;51.026;8.968;2023-02-08T05:12:28;-3.60;99.90
12578;DHT22;6354;51.026;8.968;2023-02-08T05:14:58;-3.60;99.90
12578;DHT22;6354;51.026;8.968;2023-02-08T05:17:26;-3.60;99.90
12578;DHT22;6354;51.026;8.968;2023-02-08T05:19:54;-3.60;99.90
12578;DHT22;6354;51.026;8.968;2023-02-08T05:22:22;-3.60;99.90
12578;DHT22;6354;51.026;8.968;2023-02-08T05:24:50;-3.60;99.90
12578;DHT22;6354;51.026;8.968;2023-02-08T05:27:18;-3.60;99.90
12578;DHT22;6354;51.026;8.968;2023-02-08T05:29:46;-3.70;99.90
12578;DHT22;6354;51.026;8.968;2023-02-08T05:32:16;-3.80;99.90
12578;DHT22;6354;51.026;8.968;2023-02-08T05:34:44;-3.70;99.90
12578;DHT22;6354;51.026;8.968;2023-02-08T05:37:12;-3.80;99.90
12578;DHT22;6354;51.026;8.968;2023-02-08T05:39:40;-3.80;99.90
12578;DHT22;6354;51.026;8.968;2023-02-08T05:42:08;-3.80;99.90
12578;DHT22;6354;51.026;8.968;2023-02-08T05:44:37;-3.80;99.90
12578;DHT22;6354;51.026;8.968;2023-02-08T05:47:05;-3.80;99.90
12578;DHT22;6354;51.026;8.968;2023-02-08T05:49:34;-3.80;99.90
12578;DHT22;6354;51.026;8.968;2023-02-08T05:52:03;-3.80;99.90
12578;DHT22;6354;51.026;8.968;2023-02-08T05:54:31;-3.90;99.90
12578;DHT22;6354;51.026;8.968;2023-02-08T05:56:59;-3.80;99.90
12578;DHT22;6354;51.026;8.968;2023-02-08T05:59:27;-3.80;99.90
12578;DHT22;6354;51.026;8.968;2023-02-08T06:01:55;-3.80;99.90
12578;DHT22;6354;51.026;8.968;2023-02-08T06:04:23;-3.80;99.90
12578;DHT22;6354;51.026;8.968;2023-02-08T06:06:53;-3.80;99.90
12578;DHT22;6354;51.026;8.968;2023-02-08T06:09:21;-3.80;99.90
12578;DHT22;6354;51.026;8.968;2023-02-08T06:11:49;-3.80;99.90
12578;DHT22;6354;51.026;8.968;2023-02-08T06:14:17;-3.90;99.90
12578;DHT22;6354;51.026;8.968;2023-02-08T06:16:45;-3.90;99.90
12578;DHT22;6354;51.026;8.968;2023-02-08T06:19:13;-3.80;99.90
12578;DHT22;6354;51.026;8.968;2023-02-08T06:21:42;-3.90;99.90
12578;DHT22;6354;51.026;8.968;2023-02-08T06:24:11;-3.90;99.90
12578;DHT22;6354;51.026;8.968;2023-02-08T06:26:39;-3.90;99.90
12578;DHT22;6354;51.026;8.968;2023-02-08T06:29:07;-3.90;99.90
12578;DHT22;6354;51.026;8.968;2023-02-08T06:31:35;-3.90;99.90
12578;DHT22;6354;51.026;8.968;2023-02-08T06:34:03;-3.90;99.90
12578;DHT22;6354;51.026;8.968;2023-02-08T06:36:31;-3.90;99.90
12578;DHT22;6354;51.026;8.968;2023-02-08T06:38:59;-4.00;99.90
12578;DHT22;6354;51.026;8.968;2023-02-08T06:41:29;-4.00;99.90
12578;DHT22;6354;51.026;8.968;2023-02-08T06:43:57;-4.00;99.90
12578;DHT22;6354;51.026;8.968;2023-02-08T06:46:27;-4.00;99.90
12578;DHT22;6354;51.026;8.968;2023-02-08T06:48:56;-4.00;99.90
12578;DHT22;6354;51.026;8.968;2023-02-08T06:51:26;-4.00;99.90
12578;DHT22;6354;51.026;8.968;2023-02-08T06:53:54;-4.00;99.90
12578;DHT22;6354;51.026;8.968;2023-02-08T06:56:22;-3.90;99.90
12578;DHT22;6354;51.026;8.968;2023-02-08T06:58:51;-3.90;99.90
12578;DHT22;6354;51.026;8.968;2023-02-08T07:01:19;-3.90;99.90
12578;DHT22;6354;51.026;8.968;2023-02-08T07:03:47;-3.90;99.90
12578;DHT22;6354;51.026;8.968;2023-02-08T07:06:17;-3.90;99.90
12578;DHT22;6354;51.026;8.968;2023-02-08T07:08:46;-3.80;99.90
12578;DHT22;6354;51.026;8.968;2023-02-08T07:11:16;-3.80;99.90
12578;DHT22;6354;51.026;8.968;2023-02-08T07:13:46;-3.80;99.90
12578;DHT22;6354;51.026;8.968;2023-02-08T07:16:16;-3.80;99.90
12578;DHT22;6354;51.026;8.968;2023-02-08T07:18:45;-3.70;99.90
12578;DHT22;6354;51.026;8.968;2023-02-08T07:21:13;-3.70;99.90
12578;DHT22;6354;51.026;8.968;2023-02-08T07:23:41;-3.70;99.90
12578;DHT22;6354;51.026;8.968;2023-02-08T07:26:11;-3.70;99.90
12578;DHT22;6354;51.026;8.968;2023-02-08T07:28:40;-3.60;99.90
12578;DHT22;6354;51.026;8.968;2023-02-08T07:31:10;-3.40;99.90
12578;DHT22;6354;51.026;8.968;2023-02-08T07:33:40;-3.20;99.90
12578;DHT22;6354;51.026;8.968;2023-02-08T07:36:09;-2.90;99.90
12578;DHT22;6354;51.026;8.968;2023-02-08T07:38:38;-2.80;99.90
12578;DHT22;6354;51.026;8.968;2023-02-08T07:41:09;-2.60;99.90
12578;DHT22;6354;51.026;8.968;2023-02-08T07:43:39;-2.50;99.90
12578;DHT22;6354;51.026;8.968;2023-02-08T07:46:08;-2.30;99.90
12578;DHT22;6354;51.026;8.968;2023-02-08T07:48:36;-2.20;99.90
12578;DHT22;6354;51.026;8.968;2023-02-08T07:51:08;-2.20;99.90
12578;DHT22;6354;51.026;8.968;2023-02-08T07:53:36;-2.10;99.90
12578;DHT22;6354;51.026;8.968;2023-02-08T07:56:05;-2.00;99.90
12578;DHT22;6354;51.026;8.968;2023-02-08T07:58:33;-2.00;99.90
12578;DHT22;6354;51.026;8.968;2023-02-08T08:01:01;-1.90;99.90
12578;DHT22;6354;51.026;8.968;2023-02-08T08:03:45;-1.90;99.90
12578;DHT22;6354;51.026;8.968;2023-02-08T08:06:14;-1.80;99.90
12578;DHT22;6354;51.026;8.968;2023-02-08T08:08:43;-1.80;99.90
12578;DHT22;6354;51.026;8.968;2023-02-08T08:11:13;-1.70;99.90
12578;DHT22;6354;51.026;8.968;2023-02-08T08:13:41;-1.70;99.90
12578;DHT22;6354;51.026;8.968;2023-02-08T08:16:10;-1.70;99.90
12578;DHT22;6354;51.026;8.968;2023-02-08T08:18:38;-1.60;99.90
12578;DHT22;6354;51.026;8.968;2023-02-08T08:21:06;-1.60;99.90
12578;DHT22;6354;51.026;8.968;2023-02-08T08:23:36;-1.50;99.90
12578;DHT22;6354;51.026;8.968;2023-02-08T08:26:08;-1.50;99.90
12578;DHT22;6354;51.026;8.968;2023-02-08T08:28:37;-1.40;99.90
12578;DHT22;6354;51.026;8.968;2023-02-08T08:31:09;-1.40;99.90
12578;DHT22;6354;51.026;8.968;2023-02-08T08:33:37;-1.40;99.90
12578;DHT22;6354;51.026;8.968;2023-02-08T08:36:06;-1.30;99.90
12578;DHT22;6354;51.026;8.968;2023-02-08T08:38:36;-1.30;99.90
12578;DHT22;6354;51.026;8.968;2023-02-08T08:41:06;-1.20;99.90
12578;DHT22;6354;51.026;8.968;2023-02-08T08:43:34;-1.20;99.90
12578;DHT22;6354;51.026;8.968;2023-02-08T08:46:04;-1.20;99.90
12578;DHT22;6354;51.026;8.968;2023-02-08T08:48:33;-1.10;99.90
12578;DHT22;6354;51.026;8.968;2023-02-08T08:51:01;-1.10;99.90
12578;DHT22;6354;51.026;8.968;2023-02-08T08:53:29;-1.10;99.90
12578;DHT22;6354;51.026;8.968;2023-02-08T08:55:59;-1.10;99.90
12578;DHT22;6354;51.026;8.968;2023-02-08T08:58:27;-1.00;99.90
12578;DHT22;6354;51.026;8.968;2023-02-08T09:00:55;-1.00;99.90
12578;DHT22;6354;51.026;8.968;2023-02-08T09:03:24;-0.90;99.90
12578;DHT22;6354;51.026;8.968;2023-02-08T09:05:52;-0.90;99.90
12578;DHT22;6354;51.026;8.968;2023-02-08T09:08:20;-0.80;99.90
12578;DHT22;6354;51.026;8.968;2023-02-08T09:10:48;-0.80;99.90
12578;DHT22;6354;51.026;8.968;2023-02-08T09:13:18;-0.70;99.90
12578;DHT22;6354;51.026;8.968;2023-02-08T09:15:47;-0.70;99.90
12578;DHT22;6354;51.026;8.968;2023-02-08T09:18:16;-0.70;99.90
12578;DHT22;6354;51.026;8.968;2023-02-08T09:20:44;-0.60;99.90
12578;DHT22;6354;51.026;8.968;2023-02-08T09:23:12;-0.60;99.90
12578;DHT22;6354;51.026;8.968;2023-02-08T09:25:40;-0.50;99.90
12578;DHT22;6354;51.026;8.968;2023-02-08T09:28:08;-0.40;99.90
12578;DHT22;6354;51.026;8.968;2023-02-08T09:30:38;-0.40;99.90
12578;DHT22;6354;51.026;8.968;2023-02-08T09:33:06;-0.30;99.90
12578;DHT22;6354;51.026;8.968;2023-02-08T09:35:34;-0.30;99.90
12578;DHT22;6354;51.026;8.968;2023-02-08T09:38:03;-0.20;99.90
12578;DHT22;6354;51.026;8.968;2023-02-08T09:40:40;-0.10;99.90
12578;DHT22;6354;51.026;8.968;2023-02-08T09:43:13;0.00;99.90
12578;DHT22;6354;51.026;8.968;2023-02-08T09:45:49;0.00;99.90
12578;DHT22;6354;51.026;8.968;2023-02-08T09:48:28;0.10;99.90
12578;DHT22;6354;51.026;8.968;2023-02-08T09:51:02;0.20;99.90
12578;DHT22;6354;51.026;8.968;2023-02-08T09:53:33;0.30;99.90
12578;DHT22;6354;51.026;8.968;2023-02-08T09:56:05;0.30;99.90
12578;DHT22;6354;51.026;8.968;2023-02-08T09:58:38;0.40;99.90
12578;DHT22;6354;51.026;8.968;2023-02-08T10:01:15;0.40;99.90
12578;DHT22;6354;51.026;8.968;2023-02-08T10:03:45;0.50;99.90
12578;DHT22;6354;51.026;8.968;2023-02-08T10:06:15;0.50;99.90
12578;DHT22;6354;51.026;8.968;2023-02-08T10:08:45;0.60;99.90
12578;DHT22;6354;51.026;8.968;2023-02-08T10:11:30;0.60;99.90
12578;DHT22;6354;51.026;8.968;2023-02-08T10:14:12;0.60;99.90
12578;DHT22;6354;51.026;8.968;2023-02-08T10:16:56;0.70;99.90
12578;DHT22;6354;51.026;8.968;2023-02-08T10:19:41;0.70;99.90
12578;DHT22;6354;51.026;8.968;2023-02-08T10:22:21;0.80;99.90
12578;DHT22;6354;51.026;8.968;2023-02-08T10:25:04;0.90;99.90
12578;DHT22;6354;51.026;8.968;2023-02-08T10:27:42;0.90;99.90
12578;DHT22;6354;51.026;8.968;2023-02-08T10:30:19;0.90;99.90
12578;DHT22;6354;51.026;8.968;2023-02-08T10:32:59;1.00;99.90
12578;DHT22;6354;51.026;8.968;2023-02-08T10:35:30;1.00;99.90
12578;DHT22;6354;51.026;8.968;2023-02-08T10:38:24;1.10;99.90
12578;DHT22;6354;51.026;8.968;2023-02-08T10:41:15;1.10;99.90
12578;DHT22;6354;51.026;8.968;2023-02-08T10:43:47;1.20;99.90
12578;DHT22;6354;51.026;8.968;2023-02-08T10:46:23;1.20;99.90
12578;DHT22;6354;51.026;8.968;2023-02-08T10:49:05;1.30;99.90
12578;DHT22;6354;51.026;8.968;2023-02-08T10:51:35;1.40;99.90
12578;DHT22;6354;51.026;8.968;2023-02-08T10:54:04;1.40;99.90
12578;DHT22;6354;51.026;8.968;2023-02-08T10:56:38;1.50;99.90
12578;DHT22;6354;51.026;8.968;2023-02-08T10:59:15;1.60;99.90
12578;DHT22;6354;51.026;8.968;2023-02-08T11:01:45;1.60;99.90
12578;DHT22;6354;51.026;8.968;2023-02-08T11:04:15;1.70;99.90
12578;DHT22;6354;51.026;8.968;2023-02-08T11:06:46;1.80;99.90
12578;DHT22;6354;51.026;8.968;2023-02-08T11:09:23;1.90;99.90
12578;DHT22;6354;51.026;8.968;2023-02-08T11:11:51;1.90;99.90
12578;DHT22;6354;51.026;8.968;2023-02-08T11:14:24;2.00;99.90
12578;DHT22;6354;51.026;8.968;2023-02-08T11:17:25;2.00;99.90
12578;DHT22;6354;51.026;8.968;2023-02-08T11:19:55;2.10;99.90
12578;DHT22;6354;51.026;8.968;2023-02-08T11:22:27;2.10;99.90
12578;DHT22;6354;51.026;8.968;2023-02-08T11:24:58;2.10;99.90
12578;DHT22;6354;51.026;8.968;2023-02-08T11:27:32;2.20;99.90
12578;DHT22;6354;51.026;8.968;2023-02-08T11:30:20;2.20;99.90
12578;DHT22;6354;51.026;8.968;2023-02-08T11:33:15;2.30;99.90
12578;DHT22;6354;51.026;8.968;2023-02-08T11:36:05;2.30;99.90
12578;DHT22;6354;51.026;8.968;2023-02-08T11:38:35;2.40;99.90
12578;DHT22;6354;51.026;8.968;2023-02-08T11:41:04;2.50;99.90
12578;DHT22;6354;51.026;8.968;2023-02-08T11:43:41;2.50;99.90
12578;DHT22;6354;51.026;8.968;2023-02-08T11:46:09;2.60;99.90
12578;DHT22;6354;51.026;8.968;2023-02-08T11:48:42;2.70;99.90
12578;DHT22;6354;51.026;8.968;2023-02-08T11:51:21;2.70;99.90
12578;DHT22;6354;51.026;8.968;2023-02-08T11:53:52;2.70;99.90
12578;DHT22;6354;51.026;8.968;2023-02-08T11:56:22;2.80;99.90
12578;DHT22;6354;51.026;8.968;2023-02-08T11:59:03;2.80;99.90
12578;DHT22;6354;51.026;8.968;2023-02-08T12:01:34;2.90;99.90
12578;DHT22;6354;51.026;8.968;2023-02-08T12:04:06;3.00;99.90
12578;DHT22;6354;51.026;8.968;2023-02-08T12:09:46;3.10;99.90
12578;DHT22;6354;51.026;8.968;2023-02-08T12:12:22;3.20;99.90
12578;DHT22;6354;51.026;8.968;2023-02-08T12:15:00;3.20;99.90
12578;DHT22;6354;51.026;8.968;2023-02-08T12:17:48;3.30;99.90
12578;DHT22;6354;51.026;8.968;2023-02-08T12:20:35;3.30;99.90
12578;DHT22;6354;51.026;8.968;2023-02-08T12:23:19;3.30;99.90
12578;DHT22;6354;51.026;8.968;2023-02-08T12:25:56;3.30;99.90
12578;DHT22;6354;51.026;8.968;2023-02-08T12:28:39;3.30;99.90
12578;DHT22;6354;51.026;8.968;2023-02-08T12:31:18;3.40;99.90
12578;DHT22;6354;51.026;8.968;2023-02-08T12:33:59;3.40;99.90
12578;DHT22;6354;51.026;8.968;2023-02-08T12:36:37;3.50;99.90
12578;DHT22;6354;51.026;8.968;2023-02-08T12:39:23;3.50;99.90
12578;DHT22;6354;51.026;8.968;2023-02-08T12:42:37;3.50;99.90
12578;DHT22;6354;51.026;8.968;2023-02-08T12:45:17;3.60;99.90
12578;DHT22;6354;51.026;8.968;2023-02-08T12:48:02;3.60;99.90
12578;DHT22;6354;51.026;8.968;2023-02-08T12:50:41;3.60;99.90
12578;DHT22;6354;51.026;8.968;2023-02-08T12:53:18;3.60;99.90
12578;DHT22;6354;51.026;8.968;2023-02-08T12:55:50;3.60;99.90
12578;DHT22;6354;51.026;8.968;2023-02-08T12:58:26;3.70;99.90
12578;DHT22;6354;51.026;8.968;2023-02-08T13:00:59;3.70;99.90
12578;DHT22;6354;51.026;8.968;2023-02-08T13:03:35;3.70;99.90
12578;DHT22;6354;51.026;8.968;2023-02-08T13:06:07;3.70;99.90
12578;DHT22;6354;51.026;8.968;2023-02-08T13:08:44;3.80;99.90
12578;DHT22;6354;51.026;8.968;2023-02-08T13:11:19;3.80;99.90
12578;DHT22;6354;51.026;8.968;2023-02-08T13:13:55;3.80;99.90
12578;DHT22;6354;51.026;8.968;2023-02-08T13:16:26;3.80;99.90
12578;DHT22;6354;51.026;8.968;2023-02-08T13:19:14;3.80;99.90
12578;DHT22;6354;51.026;8.968;2023-02-08T13:21:45;3.80;99.90
12578;DHT22;6354;51.026;8.968;2023-02-08T13:24:18;3.80;99.90
12578;DHT22;6354;51.026;8.968;2023-02-08T13:26:51;3.80;99.90
12578;DHT22;6354;51.026;8.968;2023-02-08T13:29:19;3.80;99.90
12578;DHT22;6354;51.026;8.968;2023-02-08T13:31:52;3.80;99.90
12578;DHT22;6354;51.026;8.968;2023-02-08T13:34:28;3.80;99.90
12578;DHT22;6354;51.026;8.968;2023-02-08T13:36:59;3.80;99.90
12578;DHT22;6354;51.026;8.968;2023-02-08T13:39:40;3.80;99.90
12578;DHT22;6354;51.026;8.968;2023-02-08T13:42:20;3.80;99.90
12578;DHT22;6354;51.026;8.968;2023-02-08T13:44:51;3.70;99.90
12578;DHT22;6354;51.026;8.968;2023-02-08T13:47:23;3.70;99.90
12578;DHT22;6354;51.026;8.968;2023-02-08T13:49:55;3.70;99.90
12578;DHT22;6354;51.026;8.968;2023-02-08T13:52:46;3.70;99.90
12578;DHT22;6354;51.026;8.968;2023-02-08T14:01:21;3.80;99.90
12578;DHT22;6354;51.026;8.968;2023-02-08T14:06:59;3.70;99.90
12578;DHT22;6354;51.026;8.968;2023-02-08T14:09:36;3.70;99.90
12578;DHT22;6354;51.026;8.968;2023-02-08T14:12:12;3.70;99.90
12578;DHT22;6354;51.026;8.968;2023-02-08T14:15:04;3.70;99.90
12578;DHT22;6354;51.026;8.968;2023-02-08T14:17:33;3.70;99.90
12578;DHT22;6354;51.026;8.968;2023-02-08T14:20:03;3.60;99.90
12578;DHT22;6354;51.026;8.968;2023-02-08T14:22:35;3.60;99.90
12578;DHT22;6354;51.026;8.968;2023-02-08T14:25:05;3.70;99.90
12578;DHT22;6354;51.026;8.968;2023-02-08T14:27:37;3.60;99.90
12578;DHT22;6354;51.026;8.968;2023-02-08T14:30:21;3.60;99.90
12578;DHT22;6354;51.026;8.968;2023-02-08T14:32:52;3.60;99.90
12578;DHT22;6354;51.026;8.968;2023-02-08T14:35:23;3.60;99.90
12578;DHT22;6354;51.026;8.968;2023-02-08T14:38:30;3.50;99.90
12578;DHT22;6354;51.026;8.968;2023-02-08T14:41:00;3.50;99.90
12578;DHT22;6354;51.026;8.968;2023-02-08T14:43:33;3.50;99.90
12578;DHT22;6354;51.026;8.968;2023-02-08T14:49:11;3.50;99.90
12578;DHT22;6354;51.026;8.968;2023-02-08T14:51:43;3.40;99.90
12578;DHT22;6354;51.026;8.968;2023-02-08T14:54:20;3.40;99.90
12578;DHT22;6354;51.026;8.968;2023-02-08T14:56:53;3.40;99.90
12578;DHT22;6354;51.026;8.968;2023-02-08T14:59:26;3.40;99.90
12578;DHT22;6354;51.026;8.968;2023-02-08T15:01:58;3.40;99.90
12578;DHT22;6354;51.026;8.968;2023-02-08T15:04:29;3.40;99.90
12578;DHT22;6354;51.026;8.968;2023-02-08T15:07:20;3.30;99.90
12578;DHT22;6354;51.026;8.968;2023-02-08T15:09:52;3.30;99.90
12578;DHT22;6354;51.026;8.968;2023-02-08T15:12:23;3.30;99.90
12578;DHT22;6354;51.026;8.968;2023-02-08T15:14:53;3.30;99.90
12578;DHT22;6354;51.026;8.968;2023-02-08T15:17:29;3.20;99.90
12578;DHT22;6354;51.026;8.968;2023-02-08T15:20:03;3.20;99.90
12578;DHT22;6354;51.026;8.968;2023-02-08T15:22:34;3.20;99.90
12578;DHT22;6354;51.026;8.968;2023-02-08T15:25:19;3.20;99.90
12578;DHT22;6354;51.026;8.968;2023-02-08T15:27:49;3.10;99.90
12578;DHT22;6354;51.026;8.968;2023-02-08T15:30:26;3.10;99.90
12578;DHT22;6354;51.026;8.968;2023-02-08T15:32:55;3.00;99.90
12578;DHT22;6354;51.026;8.968;2023-02-08T15:35:26;2.90;99.90
12578;DHT22;6354;51.026;8.968;2023-02-08T15:37:56;2.90;99.90
12578;DHT22;6354;51.026;8.968;2023-02-08T15:40:26;2.90;99.90
12578;DHT22;6354;51.026;8.968;2023-02-08T15:43:00;2.90;99.90
12578;DHT22;6354;51.026;8.968;2023-02-08T15:45:29;2.90;99.90
12578;DHT22;6354;51.026;8.968;2023-02-08T15:47:57;2.90;99.90
12578;DHT22;6354;51.026;8.968;2023-02-08T15:50:28;2.90;99.90
12578;DHT22;6354;51.026;8.968;2023-02-08T15:53:00;2.80;99.90
12578;DHT22;6354;51.026;8.968;2023-02-08T15:55:34;2.70;99.90
12578;DHT22;6354;51.026;8.968;2023-02-08T15:58:13;2.60;99.90
12578;DHT22;6354;51.026;8.968;2023-02-08T16:00:43;2.60;99.90
12578;DHT22;6354;51.026;8.968;2023-02-08T16:03:17;2.60;99.90
12578;DHT22;6354;51.026;8.968;2023-02-08T16:05:50;2.60;99.90
12578;DHT22;6354;51.026;8.968;2023-02-08T16:08:22;2.60;99.90
12578;DHT22;6354;51.026;8.968;2023-02-08T16:10:54;2.50;99.90
12578;DHT22;6354;51.026;8.968;2023-02-08T16:13:26;2.50;99.90
12578;DHT22;6354;51.026;8.968;2023-02-08T16:15:56;2.40;99.90
12578;DHT22;6354;51.026;8.968;2023-02-08T16:18:41;2.40;99.90
12578;DHT22;6354;51.026;8.968;2023-02-08T16:21:37;2.30;99.90
12578;DHT22;6354;51.026;8.968;2023-02-08T16:24:18;2.20;99.90
12578;DHT22;6354;51.026;8.968;2023-02-08T16:26:59;2.10;99.90
12578;DHT22;6354;51.026;8.968;2023-02-08T16:29:29;2.10;99.90
12578;DHT22;6354;51.026;8.968;2023-02-08T16:32:03;2.00;99.90
12578;DHT22;6354;51.026;8.968;2023-02-08T16:34:39;2.00;99.90
12578;DHT22;6354;51.026;8.968;2023-02-08T16:37:22;1.90;99.90
12578;DHT22;6354;51.026;8.968;2023-02-08T16:39:53;1.80;99.90
12578;DHT22;6354;51.026;8.968;2023-02-08T16:42:24;1.70;99.90
12578;DHT22;6354;51.026;8.968;2023-02-08T16:47:53;1.60;99.90
12578;DHT22;6354;51.026;8.968;2023-02-08T16:50:25;1.50;99.90